Flugplatz Adolf Würth

Bericht für EDTY

vom 23.05. um 18:20 UTC

Wind 4 kt aus 50°

Sichtweite 10 km oder mehr

gute Sicht, keine Wolken < 5000 ft, keine CB, keine Wettererscheinungen (CAVOK)

Temperatur 16.0°C

Taupunkt 8.0°C

Luftfeuchtigkeit 59%

Luftdruck 1017 hPa

EDTY 231820Z 05004KT CAVOK 16/08 Q1017

Prognose für EDTY

vom 23.05. um 17:00 UTC

Zwischen 18:00 UTC und 03:00 UTC

variable Windrichtung mit 3 kt

Sichtweite 10 km oder mehr

keine signifikanten Wettererscheinungen

keine Wolken

TAF EDTY 231700Z 2318/2403 VRB03KT CAVOK
Impressum